Terminal Aerodrome Forecast
Issued by NWS Corpus Christi, TX

Home | Current Version | Previous Version | Text Only | Print | Product List | Glossary On
Versions: 1 2 3 4 5 6 7 8 9 10 11 12 13 14
000
FTUS44 KCRP 190525
TAFCRP
TAF
KCRP 190525Z 1906/2006 16008KT P6SM FEW015
     FM191500 17011KT P6SM SCT030
     FM191900 12015G20KT P6SM FEW050 SCT250
     FM200200 15010KT P6SM FEW020=

USA.gov is the U.S. government's official web portal to all federal, state and local government web resources and services.